createdAt,value
2019-03-05T00:02:11.311Z,0.50
2019-03-05T00:05:28.642Z,0.23
2019-03-05T00:08:35.830Z,0.97
2019-03-05T00:11:52.372Z,0.73
2019-03-05T00:15:10.100Z,0.20
2019-03-05T00:18:17.320Z,0.83
2019-03-05T00:21:24.438Z,1.00
2019-03-05T00:25:03.974Z,0.70
2019-03-05T00:28:18.798Z,0.57
2019-03-05T00:31:30.821Z,0.90
2019-03-05T00:35:00.044Z,1.13
2019-03-05T00:38:22.448Z,0.57
2019-03-05T00:41:36.947Z,1.83
2019-03-05T00:45:28.648Z,1.40
2019-03-05T00:49:13.323Z,1.10
2019-03-05T00:53:10.969Z,1.30
2019-03-05T00:56:44.186Z,1.03
2019-03-05T01:00:10.294Z,0.83
2019-03-05T01:03:40.656Z,0.73
2019-03-05T01:06:47.861Z,1.00
2019-03-05T01:09:55.154Z,1.87
2019-03-05T01:13:02.483Z,1.07
2019-03-05T01:16:11.237Z,0.90
2019-03-05T01:19:18.369Z,1.27
2019-03-05T01:22:25.659Z,1.30
2019-03-05T01:25:33.415Z,1.50
2019-03-05T01:28:49.700Z,1.47
2019-03-05T01:32:19.037Z,1.33
2019-03-05T01:35:39.606Z,0.83
2019-03-05T01:39:23.720Z,1.37
2019-03-05T01:42:30.955Z,0.70
2019-03-05T01:45:38.083Z,1.00
2019-03-05T01:48:45.194Z,1.03
2019-03-05T01:51:52.558Z,1.73
2019-03-05T01:54:59.820Z,0.73
2019-03-05T01:58:07.110Z,0.57
2019-03-05T02:01:14.245Z,0.40
2019-03-05T02:04:21.743Z,0.77
2019-03-05T02:07:38.543Z,0.57
2019-03-05T02:10:55.268Z,0.37
2019-03-05T02:14:02.495Z,0.23
2019-03-05T02:17:09.695Z,0.47
2019-03-05T02:20:22.512Z,1.03
2019-03-05T02:24:02.334Z,0.83
2019-03-05T02:27:37.200Z,0.80
2019-03-05T02:31:25.609Z,0.70
2019-03-05T02:35:08.204Z,0.63
2019-03-05T02:39:15.221Z,0.50
2019-03-05T02:42:51.226Z,0.67
2019-03-05T02:46:04.685Z,0.37
2019-03-05T02:49:52.499Z,0.40
2019-03-05T02:53:20.666Z,0.63
2019-03-05T02:56:42.351Z,0.30
2019-03-05T02:59:51.453Z,0.57
2019-03-05T03:03:43.814Z,0.83
2019-03-05T03:06:51.542Z,0.20
2019-03-05T03:10:22.703Z,0.50
2019-03-05T03:13:39.329Z,0.27
2019-03-05T03:16:46.527Z,0.40
2019-03-05T03:19:53.651Z,0.20
2019-03-05T03:23:00.907Z,0.70
2019-03-05T03:26:08.207Z,0.70
2019-03-05T03:29:24.990Z,1.10
2019-03-05T03:32:32.429Z,0.50
2019-03-05T03:35:48.952Z,0.60
2019-03-05T03:38:56.144Z,0.70
2019-03-05T03:42:03.365Z,0.80
2019-03-05T03:45:22.015Z,0.50
2019-03-05T03:48:38.581Z,0.77
2019-03-05T03:51:45.120Z,0.30
2019-03-05T03:54:52.309Z,0.67
2019-03-05T03:57:59.555Z,0.53
2019-03-05T04:01:07.418Z,0.60
2019-03-05T04:04:24.141Z,0.27
2019-03-05T04:07:31.256Z,0.10
2019-03-05T04:10:38.448Z,0.40
2019-03-05T04:13:45.583Z,1.03
2019-03-05T04:16:52.774Z,0.63
2019-03-05T04:19:59.932Z,1.03
2019-03-05T04:23:07.215Z,0.70
2019-03-05T04:26:14.358Z,0.30
2019-03-05T04:29:21.807Z,0.40
2019-03-05T04:32:38.562Z,0.40
2019-03-05T04:35:55.157Z,0.57
2019-03-05T04:39:02.410Z,0.30
2019-03-05T04:42:09.650Z,0.20
2019-03-05T04:46:02.184Z,0.37
2019-03-05T04:49:26.634Z,0.00
2019-03-05T04:52:50.988Z,0.50
2019-03-05T04:55:58.232Z,0.30
2019-03-05T04:59:05.431Z,0.27
2019-03-05T05:02:12.553Z,0.60
2019-03-05T05:05:19.901Z,0.30
2019-03-05T05:08:27.079Z,0.40
2019-03-05T05:11:43.863Z,0.77
2019-03-05T05:15:00.529Z,0.17
2019-03-05T05:18:07.723Z,0.23
2019-03-05T05:21:14.944Z,0.20
2019-03-05T05:24:22.133Z,0.20
2019-03-05T05:27:29.355Z,0.20
2019-03-05T05:30:38.107Z,0.50
2019-03-05T05:33:45.238Z,0.40
2019-03-05T05:36:52.461Z,0.30
2019-03-05T05:40:25.103Z,0.40
2019-03-05T05:43:32.577Z,0.20
2019-03-05T05:46:39.774Z,0.17
2019-03-05T05:49:46.975Z,1.10
2019-03-05T05:52:54.284Z,0.23
2019-03-05T05:56:01.588Z,0.43
2019-03-05T05:59:18.146Z,0.30
2019-03-05T06:02:25.382Z,0.53
2019-03-05T06:05:32.730Z,0.30
2019-03-05T06:08:49.374Z,0.37
2019-03-05T06:11:56.574Z,0.10
2019-03-05T06:15:03.735Z,0.20
2019-03-05T06:18:10.958Z,0.50
2019-03-05T06:21:18.181Z,0.30
2019-03-05T06:24:25.332Z,0.97
2019-03-05T06:27:32.557Z,0.17
2019-03-05T06:30:39.900Z,0.27
2019-03-05T06:33:45.512Z,0.60
2019-03-05T06:37:02.193Z,0.60
2019-03-05T06:40:12.298Z,0.57
2019-03-05T06:43:19.358Z,0.40
2019-03-05T06:46:26.689Z,0.13
2019-03-05T06:49:33.945Z,0.37
2019-03-05T06:52:41.132Z,0.20
2019-03-05T06:55:48.318Z,0.50
2019-03-05T06:58:55.441Z,0.30
2019-03-05T07:02:02.566Z,0.40
2019-03-05T07:05:47.115Z,0.30
2019-03-05T07:09:09.308Z,0.33
2019-03-05T07:12:37.733Z,0.33
2019-03-05T07:15:54.629Z,0.30
2019-03-05T07:19:12.169Z,0.17
2019-03-05T07:22:52.800Z,0.20
2019-03-05T07:26:09.211Z,0.40
2019-03-05T07:29:18.088Z,0.37
2019-03-05T07:32:24.197Z,0.20
2019-03-05T07:35:40.448Z,0.20
2019-03-05T07:38:47.538Z,0.30
2019-03-05T07:41:54.780Z,0.67
2019-03-05T07:45:01.931Z,0.43
2019-03-05T07:48:09.137Z,0.40
2019-03-05T07:51:16.413Z,0.27
2019-03-05T07:54:23.635Z,0.20
2019-03-05T07:57:30.847Z,0.37
2019-03-05T08:00:38.009Z,0.50
2019-03-05T08:03:45.228Z,0.30
2019-03-05T08:06:52.575Z,0.10
2019-03-05T08:10:34.508Z,0.67
2019-03-05T08:14:24.002Z,0.30
2019-03-05T08:17:40.366Z,0.50
2019-03-05T08:20:47.679Z,0.50
2019-03-05T08:23:54.868Z,0.60
2019-03-05T08:27:02.117Z,0.40
2019-03-05T08:30:18.793Z,0.30
2019-03-05T08:33:25.919Z,0.20
2019-03-05T08:36:33.098Z,0.40
2019-03-05T08:39:40.293Z,0.30
2019-03-05T08:42:47.415Z,0.30
2019-03-05T08:45:54.808Z,0.47
2019-03-05T08:49:02.012Z,0.20
2019-03-05T08:52:09.206Z,0.10
2019-03-05T08:55:25.921Z,0.10
2019-03-05T08:58:33.142Z,0.40
2019-03-05T09:01:40.336Z,0.30
2019-03-05T09:04:47.460Z,0.60
2019-03-05T09:07:54.753Z,0.67
2019-03-05T09:11:02.052Z,0.20
2019-03-05T09:14:09.243Z,0.10
2019-03-05T09:17:16.453Z,0.23
2019-03-05T09:20:23.842Z,0.40
2019-03-05T09:23:40.280Z,0.10
2019-03-05T09:26:51.318Z,0.30
2019-03-05T09:29:56.355Z,0.57
2019-03-05T09:33:03.559Z,0.50
2019-03-05T09:36:10.673Z,0.60
2019-03-05T09:39:18.039Z,0.40
2019-03-05T09:42:25.238Z,0.40
2019-03-05T09:45:32.450Z,0.60
2019-03-05T09:48:49.116Z,0.63
2019-03-05T09:51:56.245Z,0.47
2019-03-05T09:55:03.874Z,0.30
2019-03-05T09:58:20.339Z,0.20
2019-03-05T10:01:27.619Z,0.40
2019-03-05T10:04:34.876Z,0.63
2019-03-05T10:07:57.834Z,0.27
2019-03-05T10:11:14.538Z,0.40
2019-03-05T10:14:30.975Z,0.10
2019-03-05T10:17:38.393Z,0.57
2019-03-05T10:20:54.955Z,0.30
2019-03-05T10:24:09.981Z,0.40
2019-03-05T10:27:20.583Z,0.33
2019-03-05T10:30:28.539Z,0.30
2019-03-05T10:33:35.862Z,0.60
2019-03-05T10:36:43.272Z,0.30
2019-03-05T10:39:50.606Z,0.50
2019-03-05T10:43:08.037Z,0.10
2019-03-05T10:46:06.802Z,0.30
2019-03-05T10:49:14.004Z,0.20
2019-03-05T10:52:21.193Z,0.30
2019-03-05T10:55:28.535Z,0.20
2019-03-05T10:58:35.736Z,0.20
2019-03-05T11:01:43.705Z,0.67
2019-03-05T11:04:52.423Z,0.13
2019-03-05T11:07:59.760Z,0.20
2019-03-05T11:11:13.388Z,0.00
2019-03-05T11:14:15.850Z,0.07
2019-03-05T11:17:23.128Z,0.07
2019-03-05T11:20:30.488Z,0.20
2019-03-05T11:23:37.799Z,0.10
2019-03-05T11:26:45.011Z,0.10
2019-03-05T11:29:52.131Z,0.70
2019-03-05T11:32:59.405Z,0.20
2019-03-05T11:36:06.719Z,0.10
2019-03-05T11:39:14.180Z,0.00
2019-03-05T11:42:21.454Z,0.20
2019-03-05T11:45:28.842Z,0.10
2019-03-05T11:48:45.539Z,0.20
2019-03-05T11:52:02.310Z,0.30
2019-03-05T11:55:11.351Z,0.13
2019-03-05T11:58:27.819Z,0.60
2019-03-05T12:01:40.422Z,0.10
2019-03-05T12:04:47.542Z,0.20
2019-03-05T12:07:54.757Z,0.20
2019-03-05T12:11:01.978Z,0.10
2019-03-05T12:14:09.317Z,0.20
2019-03-05T12:17:17.193Z,0.67
2019-03-05T12:20:24.401Z,0.40
2019-03-05T12:23:31.626Z,0.30
2019-03-05T12:26:38.927Z,0.73
2019-03-05T12:29:46.152Z,0.10
2019-03-05T12:32:53.425Z,0.10
2019-03-05T12:36:00.563Z,0.37
2019-03-05T12:39:09.064Z,0.13
2019-03-05T12:42:16.305Z,0.20
2019-03-05T12:45:24.033Z,0.27
2019-03-05T12:48:40.670Z,0.10
2019-03-05T12:51:57.307Z,0.10
2019-03-05T12:55:05.338Z,0.23
2019-03-05T12:58:12.529Z,0.10
2019-03-05T13:01:19.658Z,0.10
2019-03-05T13:04:26.794Z,0.10
2019-03-05T13:07:33.948Z,0.13
2019-03-05T13:10:41.058Z,0.27
2019-03-05T13:14:07.239Z,0.00
2019-03-05T13:17:06.282Z,0.10
2019-03-05T13:20:26.270Z,0.10
2019-03-05T13:23:41.664Z,0.10
2019-03-05T13:26:58.492Z,1.20
2019-03-05T13:30:22.073Z,0.10
2019-03-05T13:33:28.424Z,0.20
2019-03-05T13:36:35.622Z,0.30
2019-03-05T13:39:42.824Z,0.07
2019-03-05T13:42:50.104Z,0.20
2019-03-05T13:46:07.104Z,0.20
2019-03-05T13:49:40.937Z,0.23
2019-03-05T13:53:30.161Z,0.20
2019-03-05T13:56:51.627Z,0.37
2019-03-05T14:00:08.862Z,0.17
2019-03-05T14:03:35.400Z,0.10
2019-03-05T14:06:59.564Z,0.20
2019-03-05T14:10:06.801Z,0.20
2019-03-05T14:13:13.907Z,0.30
2019-03-05T14:16:21.970Z,0.37
2019-03-05T14:19:29.297Z,0.10
2019-03-05T14:22:36.655Z,0.47
2019-03-05T14:25:43.947Z,0.20
2019-03-05T14:28:51.271Z,0.20
2019-03-05T14:31:58.581Z,0.30
2019-03-05T14:35:18.011Z,0.30
2019-03-05T14:38:25.333Z,0.20
2019-03-05T14:41:32.659Z,0.47
2019-03-05T14:44:40.570Z,0.23
2019-03-05T14:47:59.172Z,0.10
2019-03-05T14:51:15.567Z,0.20
2019-03-05T14:54:22.861Z,0.10
2019-03-05T14:57:41.491Z,0.60
2019-03-05T15:00:48.918Z,0.27
2019-03-05T15:04:05.746Z,0.20
2019-03-05T15:07:22.204Z,0.20
2019-03-05T15:10:29.478Z,0.23
2019-03-05T15:13:36.648Z,0.30
2019-03-05T15:16:53.418Z,0.10
2019-03-05T15:20:00.570Z,0.30
2019-03-05T15:23:07.724Z,0.20
2019-03-05T15:26:14.909Z,0.10
2019-03-05T15:29:22.184Z,0.10
2019-03-05T15:32:29.263Z,0.43
2019-03-05T15:35:36.458Z,0.20
2019-03-05T15:38:43.645Z,0.17
2019-03-05T15:41:51.044Z,0.30
2019-03-05T15:44:58.136Z,0.17
2019-03-05T15:48:05.602Z,0.20
2019-03-05T15:51:22.160Z,0.17
2019-03-05T15:54:29.484Z,0.17
2019-03-05T15:57:46.109Z,0.50
2019-03-05T16:00:53.377Z,0.23
2019-03-05T16:04:00.603Z,0.20
2019-03-05T16:07:17.451Z,0.30
2019-03-05T16:10:24.723Z,0.20
2019-03-05T16:13:41.412Z,0.10
2019-03-05T16:16:51.804Z,0.10
2019-03-05T16:20:08.631Z,0.10
2019-03-05T16:23:15.919Z,0.20
2019-03-05T16:26:32.584Z,0.00
2019-03-05T16:29:39.702Z,0.10
2019-03-05T16:32:52.170Z,0.30
2019-03-05T16:36:37.777Z,0.20
2019-03-05T16:40:18.290Z,0.33
2019-03-05T16:43:40.801Z,0.10
2019-03-05T16:47:25.331Z,0.00
2019-03-05T16:50:56.893Z,0.10
2019-03-05T16:54:40.870Z,0.30
2019-03-05T16:57:55.726Z,0.00
2019-03-05T17:01:26.639Z,0.20
2019-03-05T17:05:14.920Z,0.33
2019-03-05T17:08:50.752Z,0.40
2019-03-05T17:11:58.073Z,0.20
2019-03-05T17:15:05.621Z,0.30
2019-03-05T17:18:12.835Z,0.10
2019-03-05T17:21:27.051Z,0.20
2019-03-05T17:24:38.471Z,0.17
2019-03-05T17:27:55.156Z,0.10
2019-03-05T17:31:02.441Z,0.60
2019-03-05T17:34:19.408Z,0.10
2019-03-05T17:37:36.022Z,0.20
2019-03-05T17:40:52.663Z,0.33
2019-03-05T17:44:19.527Z,0.30
2019-03-05T17:47:36.368Z,0.30
2019-03-05T17:50:59.200Z,0.10
2019-03-05T17:54:16.093Z,0.10
2019-03-05T17:57:32.616Z,0.10
2019-03-05T18:00:40.599Z,0.20
2019-03-05T18:03:47.832Z,0.10
2019-03-05T18:06:55.093Z,0.20
2019-03-05T18:10:02.507Z,0.80
2019-03-05T18:13:09.823Z,0.10
2019-03-05T18:16:16.968Z,0.20
2019-03-05T18:19:24.115Z,0.30
2019-03-05T18:22:31.445Z,0.37
2019-03-05T18:25:38.856Z,0.30
2019-03-05T18:28:46.297Z,0.67
2019-03-05T18:32:03.154Z,0.53
2019-03-05T18:35:19.858Z,0.27
2019-03-05T18:38:27.170Z,0.40
2019-03-05T18:41:43.918Z,0.20
2019-03-05T18:45:00.533Z,1.43
2019-03-05T18:48:07.873Z,3.57
2019-03-05T18:51:24.655Z,2.40
2019-03-05T18:54:41.305Z,4.00
2019-03-05T18:57:48.652Z,1.73
2019-03-05T19:01:05.369Z,2.30
2019-03-05T19:04:22.129Z,1.90
2019-03-05T19:07:29.372Z,0.97
2019-03-05T19:10:46.104Z,0.50
2019-03-05T19:13:53.347Z,1.00
2019-03-05T19:17:00.556Z,0.87
2019-03-05T19:20:18.900Z,2.47
2019-03-05T19:23:35.641Z,1.17
2019-03-05T19:26:42.963Z,1.23
2019-03-05T19:29:50.166Z,1.10
2019-03-05T19:32:57.629Z,0.67
2019-03-05T19:36:14.147Z,0.83
2019-03-05T19:39:21.322Z,0.30
2019-03-05T19:42:28.462Z,0.53
2019-03-05T19:45:35.872Z,0.70
2019-03-05T19:48:52.524Z,0.93
2019-03-05T19:51:59.981Z,0.30
2019-03-05T19:55:19.662Z,0.43
2019-03-05T19:58:26.698Z,0.63
2019-03-05T20:01:36.675Z,0.30
2019-03-05T20:04:43.933Z,0.57
2019-03-05T20:07:51.261Z,0.20
2019-03-05T20:10:58.515Z,0.50
2019-03-05T20:14:05.843Z,0.20
2019-03-05T20:17:13.086Z,0.27
2019-03-05T20:20:20.697Z,0.53
2019-03-05T20:23:37.211Z,0.40
2019-03-05T20:26:44.470Z,0.30
2019-03-05T20:30:01.226Z,0.43
2019-03-05T20:33:08.583Z,0.40
2019-03-05T20:36:25.066Z,0.80
2019-03-05T20:39:32.241Z,0.27
2019-03-05T20:42:49.128Z,0.73
2019-03-05T20:46:00.254Z,0.50
2019-03-05T20:49:07.493Z,0.70
2019-03-05T20:52:14.692Z,0.40
2019-03-05T20:55:22.308Z,0.50
2019-03-05T20:58:29.463Z,0.40
2019-03-05T21:01:36.594Z,0.40
2019-03-05T21:04:44.193Z,0.30
2019-03-05T21:07:51.519Z,0.13
2019-03-05T21:10:58.808Z,0.20
2019-03-05T21:14:15.502Z,0.27
2019-03-05T21:17:22.652Z,1.00
2019-03-05T21:20:30.447Z,0.63
2019-03-05T21:23:37.735Z,0.50
2019-03-05T21:26:44.868Z,0.50
2019-03-05T21:29:50.867Z,0.40
2019-03-05T21:32:58.171Z,0.53
2019-03-05T21:36:05.494Z,0.33
2019-03-05T21:39:15.283Z,0.60
2019-03-05T21:42:22.528Z,0.30
2019-03-05T21:45:34.665Z,0.40
2019-03-05T21:48:42.234Z,0.30
2019-03-05T21:51:49.416Z,0.40
2019-03-05T21:54:56.550Z,0.53
2019-03-05T21:58:03.912Z,0.37
2019-03-05T22:01:11.112Z,1.07
2019-03-05T22:04:18.341Z,0.60
2019-03-05T22:07:25.625Z,0.57
2019-03-05T22:10:32.759Z,0.40
2019-03-05T22:13:40.005Z,0.50
2019-03-05T22:16:47.142Z,0.53
2019-03-05T22:19:54.317Z,0.37
2019-03-05T22:23:01.585Z,0.73
2019-03-05T22:26:07.759Z,0.30
2019-03-05T22:29:15.229Z,0.50
2019-03-05T22:32:22.515Z,0.40
2019-03-05T22:35:29.811Z,0.60
2019-03-05T22:38:37.036Z,0.50
2019-03-05T22:41:44.233Z,0.50
2019-03-05T22:44:51.539Z,1.10
2019-03-05T22:47:58.719Z,0.83
2019-03-05T22:51:05.976Z,0.70
2019-03-05T22:54:13.202Z,0.50
2019-03-05T22:57:20.385Z,0.50
2019-03-05T23:01:03.978Z,0.53
2019-03-05T23:04:34.852Z,0.27
2019-03-05T23:07:42.060Z,0.20
2019-03-05T23:10:49.346Z,0.37
2019-03-05T23:13:56.739Z,0.40
2019-03-05T23:17:13.380Z,0.27
2019-03-05T23:20:30.048Z,0.20
2019-03-05T23:23:37.280Z,0.30
2019-03-05T23:26:54.154Z,0.20
2019-03-05T23:30:00.349Z,0.50
2019-03-05T23:33:07.528Z,0.40
2019-03-05T23:36:14.830Z,0.33
2019-03-05T23:39:22.052Z,0.40
2019-03-05T23:42:29.332Z,0.20
2019-03-05T23:45:36.554Z,0.83
2019-03-05T23:48:43.954Z,0.77
2019-03-05T23:51:51.175Z,0.40
2019-03-05T23:54:58.591Z,0.33
2019-03-05T23:58:05.839Z,0.50
